La Reforma, Texas
Current Conditions -  °F | °C
As of 4:35 PM on Monday 26 Jan 2015 (Local Time) from KEBG Reporting Station
Clear Clear  
Wind Chill: 77°   Ceiling: Unl
Heat Index: 77°   Visibility: 10mi
Dew Point: 27°   Wind: 3mph
Humidity: 16%   Direction: 190°S
Pressure: 30.2"   Gusts: NA
Location:  26.6829°N, 98.4118°W
Report Text: KEBG 262235Z AUTO 19003KT 10SM CLR 25/M03 A3020 RMK AO2 T02511029
Loading
Personal Weather Stations






























Interactive Weather Map New forecast layout! Learn more

10-Day Weather Forecast

Advertisements
Track Severe Weather on mobile